Aviation Digital Data Service (ADDS)

Output produced by METARs form (2123 UTC 17 June 2019)
found at http://www.aviationweather.gov/metar/data/
 
NSFA 172100Z 00000KT 9999 FEW030 BKN300 30/25 Q1012 RMK NIL
NSFA 172000Z 00000KT 9999 FEW030 BKN300 29/25 Q1012
NSFA 171900Z 19003KT 9999 FEW028 BKN120 25/24 Q1011
NSFA 171800Z 18004KT 9999 FEW030 BKN300 23/22 Q1011 RMK NIL
NSFA 171700Z 16003KT 9999 FEW028 BKN300 23/22 Q1010
NSFA 171600Z 16003KT 9999 FEW026 23/22 Q1009 NOSIG
NSFA 171500Z 14003KT 9999 FEW020CB SCT024 23/23 Q1010 RMK CB TO SW
NSFA 171400Z 00000KT 9999 FEW030 SCT290 23/22 Q1010 NOSIG
NSFA 171300Z 00000KT 9999 FEW028 24/24 Q1011 NOSIG
NSFA 171200Z 00000KT 9999 FEW028 SCT290 24/23 Q1011
NSFA 171100Z 13003KT 9999 FEW023 SCT300 24/24 Q1011
NSFA 171000Z 17003KT 9999 FEW023 24/23 Q1011 NOSIG
NSFA 170900Z 00000KT 9999 FEW023 24/23 Q1011
NSFA 170800Z 12004KT 9999 SCT023 24/24 Q1011 RMK NIL
NSFA 170700Z 15003KT 9999 SCT023 25/25 Q1011 RMK NIL
NSFA 170600Z 00000KT 9999 FEW023 SCT064 27/26 Q1010
NSFA 170500Z 00000KT 9999 FEW023 SCT064 28/25 Q1010 RMK NIL
NSFA 170400Z 05006KT 9999 SCT022 31/24 Q1009 RMK NIL
NSFA 170300Z VRB03KT 9999 FEW020CB BKN022 31/25 Q1009 RMK CB TO W
NSFA 170200Z 07010KT 020V110 9999 FEW019CB BKN020 30/24 Q1009 RMK CB TO W
NSFA 170100Z 03009KT 360V120 9999 FEW018CB BKN019 29/26 Q1009 RMK CB TO NW
NSFA 170000Z VRB03KT 9999 FEW020 SCT040 BKN120 30/25 Q1010
NSFA 162300Z 12007KT 080V150 9999 BKN022 29/25 Q1011 RMK NIL
NSFA 162200Z 11010KT 070V140 9999 SCT026 30/25 Q1011
TAF NSFA 171711Z 1718/1818 13005KT 9999 FEW023 SCT045 
     PROB30 
     TEMPO 1800/1806 5000 TSRA FEW018CB